sensor_id;sensor_type;location;lat;lon;timestamp;pressure;altitude;pressure_sealevel;temperature;humidity
11049;BME280;5577;42.706;23.160;2024-01-11T00:01:08;95064.38;;;-7.62;100.00
11049;BME280;5577;42.706;23.160;2024-01-11T00:03:54;95057.06;;;-7.65;100.00
11049;BME280;5577;42.706;23.160;2024-01-11T00:06:44;95061.72;;;-7.55;100.00
11049;BME280;5577;42.706;23.160;2024-01-11T00:09:29;95008.59;;;-7.79;100.00
11049;BME280;5577;42.706;23.160;2024-01-11T00:12:12;95044.00;;;-7.63;100.00
11049;BME280;5577;42.706;23.160;2024-01-11T00:14:56;95033.31;;;-7.60;100.00
11049;BME280;5577;42.706;23.160;2024-01-11T00:17:42;95040.88;;;-7.65;100.00
11049;BME280;5577;42.706;23.160;2024-01-11T00:20:26;95040.81;;;-7.59;100.00
11049;BME280;5577;42.706;23.160;2024-01-11T00:23:10;95033.03;;;-7.52;100.00
11049;BME280;5577;42.706;23.160;2024-01-11T00:25:54;95037.75;;;-7.49;100.00
11049;BME280;5577;42.706;23.160;2024-01-11T00:28:38;95041.22;;;-7.62;100.00
11049;BME280;5577;42.706;23.160;2024-01-11T00:31:22;95038.31;;;-7.65;100.00
11049;BME280;5577;42.706;23.160;2024-01-11T00:34:06;95052.13;;;-7.66;100.00
11049;BME280;5577;42.706;23.160;2024-01-11T00:36:50;95032.31;;;-7.59;100.00
11049;BME280;5577;42.706;23.160;2024-01-11T00:39:34;95032.50;;;-7.61;100.00
11049;BME280;5577;42.706;23.160;2024-01-11T00:42:18;95033.09;;;-7.59;100.00
11049;BME280;5577;42.706;23.160;2024-01-11T00:45:02;95031.66;;;-7.55;100.00
11049;BME280;5577;42.706;23.160;2024-01-11T00:47:46;95031.38;;;-7.65;100.00
11049;BME280;5577;42.706;23.160;2024-01-11T00:50:30;95027.22;;;-7.66;100.00
11049;BME280;5577;42.706;23.160;2024-01-11T00:53:14;95006.22;;;-7.81;100.00
11049;BME280;5577;42.706;23.160;2024-01-11T00:55:59;95017.97;;;-7.67;100.00
11049;BME280;5577;42.706;23.160;2024-01-11T00:58:43;95018.72;;;-7.66;100.00
11049;BME280;5577;42.706;23.160;2024-01-11T01:01:27;95019.09;;;-7.63;100.00
11049;BME280;5577;42.706;23.160;2024-01-11T01:04:11;95032.22;;;-7.71;100.00
11049;BME280;5577;42.706;23.160;2024-01-11T01:06:55;95015.22;;;-7.72;100.00
11049;BME280;5577;42.706;23.160;2024-01-11T01:09:39;95019.38;;;-7.71;100.00
11049;BME280;5577;42.706;23.160;2024-01-11T01:12:23;95020.09;;;-7.64;100.00
11049;BME280;5577;42.706;23.160;2024-01-11T01:15:09;95014.59;;;-7.67;100.00
11049;BME280;5577;42.706;23.160;2024-01-11T01:17:53;95015.59;;;-7.68;100.00
11049;BME280;5577;42.706;23.160;2024-01-11T01:20:37;95025.19;;;-7.82;100.00
11049;BME280;5577;42.706;23.160;2024-01-11T01:23:21;95020.06;;;-7.82;100.00
11049;BME280;5577;42.706;23.160;2024-01-11T01:26:06;95018.88;;;-7.79;100.00
11049;BME280;5577;42.706;23.160;2024-01-11T01:28:50;95021.22;;;-7.78;100.00
11049;BME280;5577;42.706;23.160;2024-01-11T01:31:34;95007.84;;;-7.86;100.00
11049;BME280;5577;42.706;23.160;2024-01-11T01:34:21;95010.94;;;-7.78;100.00
11049;BME280;5577;42.706;23.160;2024-01-11T01:37:05;95003.66;;;-7.81;100.00
11049;BME280;5577;42.706;23.160;2024-01-11T01:39:49;95003.88;;;-7.82;100.00
11049;BME280;5577;42.706;23.160;2024-01-11T01:42:33;94994.28;;;-7.93;100.00
11049;BME280;5577;42.706;23.160;2024-01-11T01:45:17;94987.09;;;-7.85;100.00
11049;BME280;5577;42.706;23.160;2024-01-11T01:48:02;94990.38;;;-7.78;100.00
11049;BME280;5577;42.706;23.160;2024-01-11T01:50:47;94980.66;;;-7.76;100.00
11049;BME280;5577;42.706;23.160;2024-01-11T01:53:34;94977.53;;;-7.78;100.00
11049;BME280;5577;42.706;23.160;2024-01-11T01:56:19;94980.16;;;-7.84;100.00
11049;BME280;5577;42.706;23.160;2024-01-11T01:59:04;94974.03;;;-7.83;100.00
11049;BME280;5577;42.706;23.160;2024-01-11T02:01:48;94974.06;;;-7.90;100.00
11049;BME280;5577;42.706;23.160;2024-01-11T02:04:33;94963.16;;;-7.85;100.00
11049;BME280;5577;42.706;23.160;2024-01-11T02:07:18;94968.91;;;-7.83;100.00
11049;BME280;5577;42.706;23.160;2024-01-11T02:10:03;94961.03;;;-7.88;100.00
11049;BME280;5577;42.706;23.160;2024-01-11T02:12:47;94973.31;;;-7.90;100.00
11049;BME280;5577;42.706;23.160;2024-01-11T02:15:31;94968.28;;;-8.03;100.00
11049;BME280;5577;42.706;23.160;2024-01-11T02:18:15;94955.28;;;-8.08;100.00
11049;BME280;5577;42.706;23.160;2024-01-11T02:21:00;94966.88;;;-7.99;100.00
11049;BME280;5577;42.706;23.160;2024-01-11T02:24:01;94962.06;;;-7.96;100.00
11049;BME280;5577;42.706;23.160;2024-01-11T02:29:46;94956.78;;;-8.01;100.00
11049;BME280;5577;42.706;23.160;2024-01-11T02:32:30;94943.81;;;-8.06;100.00
11049;BME280;5577;42.706;23.160;2024-01-11T02:35:15;94957.19;;;-7.97;100.00
11049;BME280;5577;42.706;23.160;2024-01-11T02:38:00;94958.53;;;-7.95;100.00
11049;BME280;5577;42.706;23.160;2024-01-11T02:40:45;94940.44;;;-8.06;100.00
11049;BME280;5577;42.706;23.160;2024-01-11T02:43:30;94955.03;;;-7.82;100.00
11049;BME280;5577;42.706;23.160;2024-01-11T02:46:15;94954.09;;;-7.88;100.00
11049;BME280;5577;42.706;23.160;2024-01-11T02:48:59;94951.88;;;-8.02;100.00
11049;BME280;5577;42.706;23.160;2024-01-11T02:51:43;94948.28;;;-8.01;100.00
11049;BME280;5577;42.706;23.160;2024-01-11T02:54:27;94944.97;;;-8.02;100.00
11049;BME280;5577;42.706;23.160;2024-01-11T02:57:11;94949.88;;;-8.00;100.00
11049;BME280;5577;42.706;23.160;2024-01-11T02:59:55;94950.31;;;-8.03;100.00
11049;BME280;5577;42.706;23.160;2024-01-11T03:02:39;94947.03;;;-8.17;100.00
11049;BME280;5577;42.706;23.160;2024-01-11T03:05:23;94940.03;;;-8.21;100.00
11049;BME280;5577;42.706;23.160;2024-01-11T03:08:07;94923.72;;;-8.33;100.00
11049;BME280;5577;42.706;23.160;2024-01-11T03:10:51;94938.78;;;-8.19;100.00
11049;BME280;5577;42.706;23.160;2024-01-11T03:13:35;94939.22;;;-8.22;100.00
11049;BME280;5577;42.706;23.160;2024-01-11T03:16:19;94937.56;;;-8.34;100.00
11049;BME280;5577;42.706;23.160;2024-01-11T03:19:03;94946.00;;;-8.27;100.00
11049;BME280;5577;42.706;23.160;2024-01-11T03:21:47;94946.59;;;-8.25;100.00
11049;BME280;5577;42.706;23.160;2024-01-11T03:24:31;94946.78;;;-8.27;100.00
11049;BME280;5577;42.706;23.160;2024-01-11T03:27:15;94946.94;;;-8.22;100.00
11049;BME280;5577;42.706;23.160;2024-01-11T03:29:59;94945.91;;;-8.21;100.00
11049;BME280;5577;42.706;23.160;2024-01-11T03:32:43;94898.94;;;-8.46;100.00
11049;BME280;5577;42.706;23.160;2024-01-11T03:35:27;94943.72;;;-8.17;100.00
11049;BME280;5577;42.706;23.160;2024-01-11T03:38:11;94941.34;;;-8.19;100.00
11049;BME280;5577;42.706;23.160;2024-01-11T03:40:55;94931.88;;;-8.18;100.00
11049;BME280;5577;42.706;23.160;2024-01-11T03:43:39;94932.22;;;-8.15;100.00
11049;BME280;5577;42.706;23.160;2024-01-11T03:46:23;94933.44;;;-8.17;100.00
11049;BME280;5577;42.706;23.160;2024-01-11T03:49:06;94935.78;;;-8.16;100.00
11049;BME280;5577;42.706;23.160;2024-01-11T03:51:52;94927.50;;;-8.18;100.00
11049;BME280;5577;42.706;23.160;2024-01-11T03:54:35;94936.72;;;-8.10;100.00
11049;BME280;5577;42.706;23.160;2024-01-11T03:57:19;94931.22;;;-8.14;100.00
11049;BME280;5577;42.706;23.160;2024-01-11T04:00:04;94932.38;;;-8.10;100.00
11049;BME280;5577;42.706;23.160;2024-01-11T04:02:49;94920.53;;;-8.11;100.00
11049;BME280;5577;42.706;23.160;2024-01-11T04:05:33;94918.34;;;-8.25;100.00
11049;BME280;5577;42.706;23.160;2024-01-11T04:08:17;94922.38;;;-8.18;100.00
11049;BME280;5577;42.706;23.160;2024-01-11T04:11:02;94923.72;;;-8.15;100.00
11049;BME280;5577;42.706;23.160;2024-01-11T04:13:47;94920.19;;;-8.14;100.00
11049;BME280;5577;42.706;23.160;2024-01-11T04:16:32;94876.44;;;-8.44;100.00
11049;BME280;5577;42.706;23.160;2024-01-11T04:19:15;94910.66;;;-8.14;100.00
11049;BME280;5577;42.706;23.160;2024-01-11T04:21:59;94903.84;;;-8.20;100.00
11049;BME280;5577;42.706;23.160;2024-01-11T04:24:43;94902.13;;;-8.26;100.00
11049;BME280;5577;42.706;23.160;2024-01-11T04:27:27;94899.47;;;-8.19;100.00
11049;BME280;5577;42.706;23.160;2024-01-11T04:30:11;94907.16;;;-8.19;100.00
11049;BME280;5577;42.706;23.160;2024-01-11T04:32:56;94899.47;;;-8.19;100.00
11049;BME280;5577;42.706;23.160;2024-01-11T04:35:40;94903.56;;;-8.30;100.00
11049;BME280;5577;42.706;23.160;2024-01-11T04:38:24;94903.97;;;-8.33;100.00
11049;BME280;5577;42.706;23.160;2024-01-11T04:41:08;94906.81;;;-8.41;100.00
11049;BME280;5577;42.706;23.160;2024-01-11T04:43:52;94915.16;;;-8.45;100.00
11049;BME280;5577;42.706;23.160;2024-01-11T04:46:36;94917.34;;;-8.49;100.00
11049;BME280;5577;42.706;23.160;2024-01-11T04:49:20;94915.72;;;-8.43;100.00
11049;BME280;5577;42.706;23.160;2024-01-11T04:52:04;94914.63;;;-8.54;100.00
11049;BME280;5577;42.706;23.160;2024-01-11T04:54:49;94914.09;;;-8.62;100.00
11049;BME280;5577;42.706;23.160;2024-01-11T04:57:32;94917.00;;;-8.59;100.00
11049;BME280;5577;42.706;23.160;2024-01-11T05:00:17;94922.25;;;-8.47;100.00
11049;BME280;5577;42.706;23.160;2024-01-11T05:03:01;94902.34;;;-8.52;100.00
11049;BME280;5577;42.706;23.160;2024-01-11T05:05:45;94916.16;;;-8.46;100.00
11049;BME280;5577;42.706;23.160;2024-01-11T05:08:29;94918.28;;;-8.43;100.00
11049;BME280;5577;42.706;23.160;2024-01-11T05:11:20;94912.50;;;-8.39;100.00
11049;BME280;5577;42.706;23.160;2024-01-11T05:14:04;94909.38;;;-8.41;100.00
11049;BME280;5577;42.706;23.160;2024-01-11T05:16:47;94906.44;;;-8.44;100.00
11049;BME280;5577;42.706;23.160;2024-01-11T05:19:31;94906.03;;;-8.41;100.00
11049;BME280;5577;42.706;23.160;2024-01-11T05:22:15;94902.72;;;-8.48;100.00
11049;BME280;5577;42.706;23.160;2024-01-11T05:24:59;94895.88;;;-8.54;100.00
11049;BME280;5577;42.706;23.160;2024-01-11T05:27:43;94894.88;;;-8.53;100.00
11049;BME280;5577;42.706;23.160;2024-01-11T05:30:27;94888.38;;;-8.56;100.00
11049;BME280;5577;42.706;23.160;2024-01-11T05:33:11;94892.31;;;-8.53;100.00
11049;BME280;5577;42.706;23.160;2024-01-11T05:35:55;94892.78;;;-8.63;100.00
11049;BME280;5577;42.706;23.160;2024-01-11T05:38:39;94881.31;;;-8.60;100.00
11049;BME280;5577;42.706;23.160;2024-01-11T05:41:24;94887.28;;;-8.66;100.00
11049;BME280;5577;42.706;23.160;2024-01-11T05:44:08;94887.69;;;-8.69;100.00
11049;BME280;5577;42.706;23.160;2024-01-11T05:46:52;94886.38;;;-8.54;100.00
11049;BME280;5577;42.706;23.160;2024-01-11T05:49:36;94885.03;;;-8.56;100.00
11049;BME280;5577;42.706;23.160;2024-01-11T05:52:20;94888.63;;;-8.64;100.00
11049;BME280;5577;42.706;23.160;2024-01-11T05:55:04;94891.16;;;-8.57;100.00
11049;BME280;5577;42.706;23.160;2024-01-11T05:57:49;94827.09;;;-8.88;100.00
11049;BME280;5577;42.706;23.160;2024-01-11T06:00:32;94876.13;;;-8.54;100.00
11049;BME280;5577;42.706;23.160;2024-01-11T06:03:17;94877.47;;;-8.51;100.00
11049;BME280;5577;42.706;23.160;2024-01-11T06:06:02;94869.97;;;-8.53;100.00
11049;BME280;5577;42.706;23.160;2024-01-11T06:08:46;94871.94;;;-8.48;100.00
11049;BME280;5577;42.706;23.160;2024-01-11T06:11:30;94871.78;;;-8.53;100.00
11049;BME280;5577;42.706;23.160;2024-01-11T06:14:14;94876.41;;;-8.62;100.00
11049;BME280;5577;42.706;23.160;2024-01-11T06:16:58;94840.50;;;-8.68;100.00
11049;BME280;5577;42.706;23.160;2024-01-11T06:19:42;94865.22;;;-8.49;100.00
11049;BME280;5577;42.706;23.160;2024-01-11T06:22:26;94866.47;;;-8.34;100.00
11049;BME280;5577;42.706;23.160;2024-01-11T06:25:11;94857.56;;;-8.31;100.00
11049;BME280;5577;42.706;23.160;2024-01-11T06:27:55;94859.13;;;-8.30;100.00
11049;BME280;5577;42.706;23.160;2024-01-11T06:30:39;94861.84;;;-8.25;100.00
11049;BME280;5577;42.706;23.160;2024-01-11T06:33:23;94854.34;;;-8.09;100.00
11049;BME280;5577;42.706;23.160;2024-01-11T06:36:07;94859.31;;;-7.96;100.00
11049;BME280;5577;42.706;23.160;2024-01-11T06:38:51;94854.59;;;-7.81;100.00
11049;BME280;5577;42.706;23.160;2024-01-11T06:41:35;94856.34;;;-7.63;100.00
11049;BME280;5577;42.706;23.160;2024-01-11T06:44:19;94848.91;;;-7.53;100.00
11049;BME280;5577;42.706;23.160;2024-01-11T06:47:03;94842.81;;;-7.41;100.00
11049;BME280;5577;42.706;23.160;2024-01-11T06:49:49;94813.19;;;-7.43;100.00
11049;BME280;5577;42.706;23.160;2024-01-11T06:52:33;94844.75;;;-6.95;100.00
11049;BME280;5577;42.706;23.160;2024-01-11T06:55:17;94846.00;;;-6.75;100.00
11049;BME280;5577;42.706;23.160;2024-01-11T06:58:01;94848.94;;;-6.48;100.00
11049;BME280;5577;42.706;23.160;2024-01-11T07:00:45;94845.00;;;-6.28;100.00
11049;BME280;5577;42.706;23.160;2024-01-11T07:03:29;94848.25;;;-6.21;100.00
11049;BME280;5577;42.706;23.160;2024-01-11T07:06:13;94851.28;;;-6.00;100.00
11049;BME280;5577;42.706;23.160;2024-01-11T07:08:57;94675.25;;;-6.92;100.00
11049;BME280;5577;42.706;23.160;2024-01-11T07:11:42;94848.06;;;-5.68;100.00
11049;BME280;5577;42.706;23.160;2024-01-11T07:14:26;94838.16;;;-5.59;100.00
11049;BME280;5577;42.706;23.160;2024-01-11T07:17:10;94855.25;;;-5.42;100.00
11049;BME280;5577;42.706;23.160;2024-01-11T07:19:54;94838.72;;;-5.29;100.00
11049;BME280;5577;42.706;23.160;2024-01-11T07:22:37;94839.22;;;-5.16;100.00
11049;BME280;5577;42.706;23.160;2024-01-11T07:25:21;94839.66;;;-4.91;100.00
11049;BME280;5577;42.706;23.160;2024-01-11T07:28:05;94834.78;;;-4.71;100.00
11049;BME280;5577;42.706;23.160;2024-01-11T07:30:50;94832.47;;;-4.56;100.00
11049;BME280;5577;42.706;23.160;2024-01-11T07:33:33;94824.38;;;-4.43;100.00
11049;BME280;5577;42.706;23.160;2024-01-11T07:36:17;94830.97;;;-4.35;100.00
11049;BME280;5577;42.706;23.160;2024-01-11T07:39:01;94826.84;;;-4.15;100.00
11049;BME280;5577;42.706;23.160;2024-01-11T07:41:45;94829.66;;;-4.00;100.00
11049;BME280;5577;42.706;23.160;2024-01-11T07:44:30;94819.97;;;-3.88;100.00
11049;BME280;5577;42.706;23.160;2024-01-11T07:47:13;94811.56;;;-3.78;100.00
11049;BME280;5577;42.706;23.160;2024-01-11T07:49:57;94827.63;;;-3.55;100.00
11049;BME280;5577;42.706;23.160;2024-01-11T07:52:41;94832.72;;;-3.38;100.00
11049;BME280;5577;42.706;23.160;2024-01-11T07:55:26;94828.88;;;-3.36;100.00
11049;BME280;5577;42.706;23.160;2024-01-11T07:58:10;94828.59;;;-3.13;100.00
11049;BME280;5577;42.706;23.160;2024-01-11T08:00:56;94821.84;;;-2.87;100.00
11049;BME280;5577;42.706;23.160;2024-01-11T08:03:40;94816.34;;;-2.64;100.00
11049;BME280;5577;42.706;23.160;2024-01-11T08:06:25;94816.53;;;-2.39;100.00
11049;BME280;5577;42.706;23.160;2024-01-11T08:09:09;94819.25;;;-2.19;100.00
11049;BME280;5577;42.706;23.160;2024-01-11T08:11:54;94800.09;;;-2.13;100.00
11049;BME280;5577;42.706;23.160;2024-01-11T08:14:39;94814.84;;;-1.72;100.00
11049;BME280;5577;42.706;23.160;2024-01-11T08:17:23;94757.09;;;-1.99;100.00
11049;BME280;5577;42.706;23.160;2024-01-11T08:20:08;94813.91;;;-1.46;100.00
11049;BME280;5577;42.706;23.160;2024-01-11T08:22:52;94807.00;;;-1.15;100.00
11049;BME280;5577;42.706;23.160;2024-01-11T08:25:36;94802.38;;;-0.83;100.00
11049;BME280;5577;42.706;23.160;2024-01-11T08:28:21;94790.94;;;-0.37;100.00
11049;BME280;5577;42.706;23.160;2024-01-11T08:31:04;94795.78;;;0.10;100.00
11049;BME280;5577;42.706;23.160;2024-01-11T08:33:48;94802.75;;;0.34;100.00
11049;BME280;5577;42.706;23.160;2024-01-11T08:36:33;94785.69;;;0.67;93.67
11049;BME280;5577;42.706;23.160;2024-01-11T08:39:19;94771.22;;;0.89;84.43
11049;BME280;5577;42.706;23.160;2024-01-11T08:42:03;94805.50;;;1.50;77.32
11049;BME280;5577;42.706;23.160;2024-01-11T08:44:48;94806.00;;;2.09;73.21
11049;BME280;5577;42.706;23.160;2024-01-11T08:47:35;94809.91;;;2.58;71.48
11049;BME280;5577;42.706;23.160;2024-01-11T08:50:21;94804.06;;;2.66;70.34
11049;BME280;5577;42.706;23.160;2024-01-11T08:53:06;94794.31;;;2.95;68.81
11049;BME280;5577;42.706;23.160;2024-01-11T08:55:50;94783.66;;;3.43;66.48
11049;BME280;5577;42.706;23.160;2024-01-11T08:58:34;94784.66;;;3.79;62.80
11049;BME280;5577;42.706;23.160;2024-01-11T09:01:18;94786.59;;;4.32;61.22
11049;BME280;5577;42.706;23.160;2024-01-11T09:04:02;94784.19;;;5.25;58.02
11049;BME280;5577;42.706;23.160;2024-01-11T09:06:46;94779.00;;;5.56;53.55
11049;BME280;5577;42.706;23.160;2024-01-11T09:09:30;94768.19;;;5.35;53.73
11049;BME280;5577;42.706;23.160;2024-01-11T09:12:14;94777.66;;;6.03;52.71
11049;BME280;5577;42.706;23.160;2024-01-11T09:14:58;94759.78;;;6.22;51.54
11049;BME280;5577;42.706;23.160;2024-01-11T09:17:42;94763.56;;;6.85;49.79
11049;BME280;5577;42.706;23.160;2024-01-11T09:20:26;94752.00;;;7.20;47.79
11049;BME280;5577;42.706;23.160;2024-01-11T09:23:10;94750.75;;;7.52;46.92
11049;BME280;5577;42.706;23.160;2024-01-11T09:25:54;94743.03;;;7.55;45.69
11049;BME280;5577;42.706;23.160;2024-01-11T09:28:38;94740.28;;;8.06;45.37
11049;BME280;5577;42.706;23.160;2024-01-11T09:31:22;94737.81;;;8.10;44.66
11049;BME280;5577;42.706;23.160;2024-01-11T09:34:06;94700.44;;;8.45;43.96
11049;BME280;5577;42.706;23.160;2024-01-11T09:36:51;94732.25;;;8.49;43.88
11049;BME280;5577;42.706;23.160;2024-01-11T09:39:36;94715.31;;;8.79;42.99
11049;BME280;5577;42.706;23.160;2024-01-11T09:42:20;94713.47;;;9.00;43.13
11049;BME280;5577;42.706;23.160;2024-01-11T09:45:07;94703.03;;;10.82;40.80
11049;BME280;5577;42.706;23.160;2024-01-11T09:47:52;94701.34;;;11.13;38.50
11049;BME280;5577;42.706;23.160;2024-01-11T09:50:37;94690.72;;;11.25;38.56
11049;BME280;5577;42.706;23.160;2024-01-11T09:53:22;94684.13;;;11.47;37.84
11049;BME280;5577;42.706;23.160;2024-01-11T09:56:08;94675.75;;;12.16;36.80
11049;BME280;5577;42.706;23.160;2024-01-11T09:58:53;94682.94;;;12.46;36.25
11049;BME280;5577;42.706;23.160;2024-01-11T10:01:37;94673.50;;;12.64;35.26
11049;BME280;5577;42.706;23.160;2024-01-11T10:04:22;94670.16;;;12.36;34.97
11049;BME280;5577;42.706;23.160;2024-01-11T10:07:06;94672.13;;;11.37;36.43
11049;BME280;5577;42.706;23.160;2024-01-11T10:09:51;94661.88;;;11.36;36.16
11049;BME280;5577;42.706;23.160;2024-01-11T10:12:35;94623.63;;;11.37;36.55
11049;BME280;5577;42.706;23.160;2024-01-11T10:15:24;94650.16;;;12.08;35.51
11049;BME280;5577;42.706;23.160;2024-01-11T10:18:08;94643.72;;;12.09;35.73
11049;BME280;5577;42.706;23.160;2024-01-11T10:20:51;94642.06;;;11.18;36.71
11049;BME280;5577;42.706;23.160;2024-01-11T10:23:36;94645.69;;;9.57;39.45
11049;BME280;5577;42.706;23.160;2024-01-11T10:26:21;94643.06;;;8.83;40.36
11049;BME280;5577;42.706;23.160;2024-01-11T10:29:05;94650.50;;;6.38;44.84
11049;BME280;5577;42.706;23.160;2024-01-11T10:31:54;94634.47;;;5.39;47.72
11049;BME280;5577;42.706;23.160;2024-01-11T10:34:38;94631.31;;;5.50;48.76
11049;BME280;5577;42.706;23.160;2024-01-11T10:37:25;94618.03;;;6.51;47.86
11049;BME280;5577;42.706;23.160;2024-01-11T10:40:10;94615.78;;;8.59;44.49
11049;BME280;5577;42.706;23.160;2024-01-11T10:42:58;94615.41;;;9.55;42.43
11049;BME280;5577;42.706;23.160;2024-01-11T10:45:44;94595.09;;;10.63;40.45
11049;BME280;5577;42.706;23.160;2024-01-11T10:48:30;94599.09;;;10.85;40.26
11049;BME280;5577;42.706;23.160;2024-01-11T10:51:16;94597.25;;;12.65;37.82
11049;BME280;5577;42.706;23.160;2024-01-11T10:54:04;94590.50;;;12.86;36.96
11049;BME280;5577;42.706;23.160;2024-01-11T10:56:48;94588.22;;;13.04;36.85
11049;BME280;5577;42.706;23.160;2024-01-11T10:59:34;94574.88;;;13.19;36.06
11049;BME280;5577;42.706;23.160;2024-01-11T11:02:21;94579.22;;;13.50;36.23
11049;BME280;5577;42.706;23.160;2024-01-11T11:05:07;94568.06;;;14.08;35.12
11049;BME280;5577;42.706;23.160;2024-01-11T11:07:54;94551.69;;;14.55;34.70
11049;BME280;5577;42.706;23.160;2024-01-11T11:10:39;94546.44;;;15.21;33.93
11049;BME280;5577;42.706;23.160;2024-01-11T11:13:25;94543.75;;;15.21;33.62
11049;BME280;5577;42.706;23.160;2024-01-11T11:16:09;94542.25;;;14.61;34.04
11049;BME280;5577;42.706;23.160;2024-01-11T11:18:56;94529.28;;;14.89;33.79
11049;BME280;5577;42.706;23.160;2024-01-11T11:21:44;94518.84;;;15.40;32.95
11049;BME280;5577;42.706;23.160;2024-01-11T11:24:29;94517.88;;;15.22;33.51
11049;BME280;5577;42.706;23.160;2024-01-11T11:27:13;94531.56;;;14.09;34.46
11049;BME280;5577;42.706;23.160;2024-01-11T11:29:58;94504.16;;;13.37;35.85
11049;BME280;5577;42.706;23.160;2024-01-11T11:32:43;94512.78;;;13.98;35.62
11049;BME280;5577;42.706;23.160;2024-01-11T11:35:27;94497.72;;;14.32;34.64
11049;BME280;5577;42.706;23.160;2024-01-11T11:38:26;94496.16;;;12.39;36.58
11049;BME280;5577;42.706;23.160;2024-01-11T11:41:10;94484.13;;;11.76;38.22
11049;BME280;5577;42.706;23.160;2024-01-11T11:44:03;94481.69;;;10.81;39.66
11049;BME280;5577;42.706;23.160;2024-01-11T11:46:47;94484.47;;;9.81;41.22
11049;BME280;5577;42.706;23.160;2024-01-11T11:49:57;94485.03;;;9.63;42.34
11049;BME280;5577;42.706;23.160;2024-01-11T11:52:43;94483.16;;;8.95;44.13
11049;BME280;5577;42.706;23.160;2024-01-11T11:55:29;94480.63;;;8.33;46.55
11049;BME280;5577;42.706;23.160;2024-01-11T11:58:13;94472.50;;;8.17;47.13
11049;BME280;5577;42.706;23.160;2024-01-11T12:00:58;94474.19;;;8.42;46.97
11049;BME280;5577;42.706;23.160;2024-01-11T12:03:43;94466.38;;;7.84;47.52
11049;BME280;5577;42.706;23.160;2024-01-11T12:06:32;94463.84;;;7.38;49.05
11049;BME280;5577;42.706;23.160;2024-01-11T12:09:18;94458.97;;;7.20;49.93
11049;BME280;5577;42.706;23.160;2024-01-11T12:12:05;94449.63;;;6.85;51.38
11049;BME280;5577;42.706;23.160;2024-01-11T12:14:50;94451.75;;;6.37;53.07
11049;BME280;5577;42.706;23.160;2024-01-11T12:17:34;94442.44;;;6.56;53.40
11049;BME280;5577;42.706;23.160;2024-01-11T12:20:18;94442.31;;;6.99;52.93
11049;BME280;5577;42.706;23.160;2024-01-11T12:23:05;94435.72;;;7.22;52.48
11049;BME280;5577;42.706;23.160;2024-01-11T12:25:49;94428.91;;;7.79;51.12
11049;BME280;5577;42.706;23.160;2024-01-11T12:28:33;94429.97;;;8.60;49.95
11049;BME280;5577;42.706;23.160;2024-01-11T12:31:18;94418.59;;;9.04;47.74
11049;BME280;5577;42.706;23.160;2024-01-11T12:34:03;94408.81;;;9.77;46.17
11049;BME280;5577;42.706;23.160;2024-01-11T12:36:48;94409.97;;;11.32;43.40
11049;BME280;5577;42.706;23.160;2024-01-11T12:39:33;94408.75;;;11.45;42.16
11049;BME280;5577;42.706;23.160;2024-01-11T12:42:17;94407.13;;;10.79;43.29
11049;BME280;5577;42.706;23.160;2024-01-11T12:45:00;94408.53;;;9.94;45.10
11049;BME280;5577;42.706;23.160;2024-01-11T12:47:44;94401.75;;;9.69;45.46
11049;BME280;5577;42.706;23.160;2024-01-11T12:50:33;94407.63;;;10.14;43.89
11049;BME280;5577;42.706;23.160;2024-01-11T12:53:17;94388.06;;;10.58;44.06
11049;BME280;5577;42.706;23.160;2024-01-11T12:56:03;94386.50;;;11.81;41.80
11049;BME280;5577;42.706;23.160;2024-01-11T12:58:48;94380.94;;;11.55;41.69
11049;BME280;5577;42.706;23.160;2024-01-11T13:01:32;94378.59;;;11.19;42.60
11049;BME280;5577;42.706;23.160;2024-01-11T13:04:17;94377.59;;;11.08;43.04
11049;BME280;5577;42.706;23.160;2024-01-11T13:07:01;94371.59;;;10.80;42.64
11049;BME280;5577;42.706;23.160;2024-01-11T13:09:45;94375.94;;;9.90;44.27
11049;BME280;5577;42.706;23.160;2024-01-11T13:12:30;94372.25;;;8.70;46.46
11049;BME280;5577;42.706;23.160;2024-01-11T13:15:13;94370.84;;;8.85;46.50
11049;BME280;5577;42.706;23.160;2024-01-11T13:17:59;94372.16;;;7.61;48.96
11049;BME280;5577;42.706;23.160;2024-01-11T13:20:43;94364.47;;;6.98;50.75
11049;BME280;5577;42.706;23.160;2024-01-11T13:23:27;94362.28;;;6.62;51.67
11049;BME280;5577;42.706;23.160;2024-01-11T13:26:11;94359.16;;;6.69;52.27
11049;BME280;5577;42.706;23.160;2024-01-11T13:28:55;94352.56;;;7.21;51.11
11049;BME280;5577;42.706;23.160;2024-01-11T13:31:39;94357.41;;;6.73;52.16
11049;BME280;5577;42.706;23.160;2024-01-11T13:34:23;94358.81;;;6.79;52.30
11049;BME280;5577;42.706;23.160;2024-01-11T13:37:07;94340.13;;;7.01;52.60
11049;BME280;5577;42.706;23.160;2024-01-11T13:39:51;94343.13;;;7.20;52.09
11049;BME280;5577;42.706;23.160;2024-01-11T13:42:35;94339.09;;;6.56;53.46
11049;BME280;5577;42.706;23.160;2024-01-11T13:45:19;94338.94;;;5.89;55.39
11049;BME280;5577;42.706;23.160;2024-01-11T13:48:04;94333.59;;;5.04;58.04
11049;BME280;5577;42.706;23.160;2024-01-11T13:50:49;94338.56;;;4.58;61.84
11049;BME280;5577;42.706;23.160;2024-01-11T13:53:33;94334.44;;;4.35;66.62
11049;BME280;5577;42.706;23.160;2024-01-11T13:56:17;94322.00;;;4.10;70.58
11049;BME280;5577;42.706;23.160;2024-01-11T13:59:01;94333.59;;;3.87;75.30
11049;BME280;5577;42.706;23.160;2024-01-11T14:01:45;94333.03;;;3.76;78.14
11049;BME280;5577;42.706;23.160;2024-01-11T14:04:29;94327.03;;;3.54;81.69
11049;BME280;5577;42.706;23.160;2024-01-11T14:07:13;94322.19;;;3.25;85.05
11049;BME280;5577;42.706;23.160;2024-01-11T14:09:57;94314.72;;;3.19;89.38
11049;BME280;5577;42.706;23.160;2024-01-11T14:12:41;94309.91;;;3.12;90.02
11049;BME280;5577;42.706;23.160;2024-01-11T14:15:27;94311.97;;;3.01;92.34
11049;BME280;5577;42.706;23.160;2024-01-11T14:18:11;94301.41;;;2.93;93.21
11049;BME280;5577;42.706;23.160;2024-01-11T14:20:55;94304.72;;;2.85;97.85
11049;BME280;5577;42.706;23.160;2024-01-11T14:23:39;94308.50;;;2.79;98.82
11049;BME280;5577;42.706;23.160;2024-01-11T14:26:23;94307.19;;;2.54;100.00
11049;BME280;5577;42.706;23.160;2024-01-11T14:29:07;94300.22;;;2.36;100.00
11049;BME280;5577;42.706;23.160;2024-01-11T14:31:51;94301.28;;;2.22;100.00